sensor_id;sensor_type;location;lat;lon;timestamp;P1;durP1;ratioP1;P2;durP2;ratioP2
67132;SDS011;54052;53.542;49.408;2023-04-01T00:00:51;1.33;;;0.60;;
67132;SDS011;54052;53.542;49.408;2023-04-01T00:03:19;0.98;;;0.70;;
67132;SDS011;54052;53.542;49.408;2023-04-01T00:05:46;1.95;;;0.80;;
67132;SDS011;54052;53.542;49.408;2023-04-01T00:08:12;1.40;;;0.57;;
67132;SDS011;54052;53.542;49.408;2023-04-01T00:10:39;1.05;;;0.68;;
67132;SDS011;54052;53.542;49.408;2023-04-01T00:13:05;3.25;;;1.05;;
67132;SDS011;54052;53.542;49.408;2023-04-01T00:15:31;2.13;;;0.90;;
67132;SDS011;54052;53.542;49.408;2023-04-01T00:17:57;3.40;;;0.80;;
67132;SDS011;54052;53.542;49.408;2023-04-01T00:20:24;4.20;;;0.88;;
67132;SDS011;54052;53.542;49.408;2023-04-01T00:22:50;2.53;;;0.82;;
67132;SDS011;54052;53.542;49.408;2023-04-01T00:25:16;5.03;;;1.02;;
67132;SDS011;54052;53.542;49.408;2023-04-01T00:27:43;6.90;;;1.30;;
67132;SDS011;54052;53.542;49.408;2023-04-01T00:30:09;1.20;;;0.70;;
67132;SDS011;54052;53.542;49.408;2023-04-01T00:32:36;4.28;;;0.80;;
67132;SDS011;54052;53.542;49.408;2023-04-01T00:35:02;1.38;;;0.80;;
67132;SDS011;54052;53.542;49.408;2023-04-01T00:37:29;2.80;;;1.00;;
67132;SDS011;54052;53.542;49.408;2023-04-01T00:39:56;0.75;;;0.60;;
67132;SDS011;54052;53.542;49.408;2023-04-01T00:42:23;3.65;;;0.80;;
67132;SDS011;54052;53.542;49.408;2023-04-01T00:44:50;1.63;;;0.70;;
67132;SDS011;54052;53.542;49.408;2023-04-01T00:47:17;1.67;;;0.90;;
67132;SDS011;54052;53.542;49.408;2023-04-01T00:49:45;3.10;;;1.00;;
67132;SDS011;54052;53.542;49.408;2023-04-01T00:52:15;3.33;;;0.80;;
67132;SDS011;54052;53.542;49.408;2023-04-01T00:54:44;1.73;;;0.80;;
67132;SDS011;54052;53.542;49.408;2023-04-01T00:57:34;3.20;;;0.80;;
67132;SDS011;54052;53.542;49.408;2023-04-01T01:00:03;1.65;;;0.95;;
67132;SDS011;54052;53.542;49.408;2023-04-01T01:02:33;3.67;;;0.80;;
67132;SDS011;54052;53.542;49.408;2023-04-01T01:05:01;2.50;;;1.10;;
67132;SDS011;54052;53.542;49.408;2023-04-01T01:12:46;3.40;;;0.90;;
67132;SDS011;54052;53.542;49.408;2023-04-01T01:15:32;2.45;;;0.90;;
67132;SDS011;54052;53.542;49.408;2023-04-01T01:18:16;3.40;;;1.10;;
67132;SDS011;54052;53.542;49.408;2023-04-01T01:29:02;3.58;;;1.15;;
67132;SDS011;54052;53.542;49.408;2023-04-01T01:37:11;2.80;;;0.93;;
67132;SDS011;54052;53.542;49.408;2023-04-01T01:39:43;2.10;;;0.77;;
67132;SDS011;54052;53.542;49.408;2023-04-01T01:42:16;3.70;;;1.30;;
67132;SDS011;54052;53.542;49.408;2023-04-01T01:44:44;1.92;;;1.02;;
67132;SDS011;54052;53.542;49.408;2023-04-01T01:47:12;2.95;;;1.20;;
67132;SDS011;54052;53.542;49.408;2023-04-01T01:49:41;2.30;;;1.02;;
67132;SDS011;54052;53.542;49.408;2023-04-01T01:52:09;3.03;;;1.50;;
67132;SDS011;54052;53.542;49.408;2023-04-01T01:54:35;7.43;;;1.50;;
67132;SDS011;54052;53.542;49.408;2023-04-01T01:57:09;2.83;;;1.42;;
67132;SDS011;54052;53.542;49.408;2023-04-01T01:59:37;2.72;;;1.00;;
67132;SDS011;54052;53.542;49.408;2023-04-01T02:02:05;3.42;;;1.13;;
67132;SDS011;54052;53.542;49.408;2023-04-01T02:04:34;5.55;;;1.40;;
67132;SDS011;54052;53.542;49.408;2023-04-01T02:07:03;2.50;;;1.25;;
67132;SDS011;54052;53.542;49.408;2023-04-01T02:09:36;3.35;;;1.30;;
67132;SDS011;54052;53.542;49.408;2023-04-01T02:12:04;2.25;;;1.17;;
67132;SDS011;54052;53.542;49.408;2023-04-01T02:17:09;2.90;;;1.17;;
67132;SDS011;54052;53.542;49.408;2023-04-01T02:22:34;7.03;;;2.35;;
67132;SDS011;54052;53.542;49.408;2023-04-01T02:25:07;2.15;;;1.15;;
67132;SDS011;54052;53.542;49.408;2023-04-01T02:27:36;2.78;;;1.10;;
67132;SDS011;54052;53.542;49.408;2023-04-01T02:30:04;4.53;;;1.08;;
67132;SDS011;54052;53.542;49.408;2023-04-01T02:32:31;2.10;;;1.27;;
67132;SDS011;54052;53.542;49.408;2023-04-01T02:35:00;6.32;;;1.25;;
67132;SDS011;54052;53.542;49.408;2023-04-01T02:37:31;13.68;;;1.88;;
67132;SDS011;54052;53.542;49.408;2023-04-01T02:40:02;4.85;;;1.63;;
67132;SDS011;54052;53.542;49.408;2023-04-01T02:42:32;1.65;;;1.10;;
67132;SDS011;54052;53.542;49.408;2023-04-01T02:44:59;4.35;;;1.00;;
67132;SDS011;54052;53.542;49.408;2023-04-01T02:47:25;7.13;;;1.40;;
67132;SDS011;54052;53.542;49.408;2023-04-01T02:49:51;4.30;;;1.20;;
67132;SDS011;54052;53.542;49.408;2023-04-01T02:52:26;9.52;;;1.38;;
67132;SDS011;54052;53.542;49.408;2023-04-01T02:54:53;9.88;;;1.67;;
67132;SDS011;54052;53.542;49.408;2023-04-01T02:57:20;5.00;;;1.40;;
67132;SDS011;54052;53.542;49.408;2023-04-01T02:59:47;3.97;;;1.20;;
67132;SDS011;54052;53.542;49.408;2023-04-01T03:02:13;4.72;;;1.23;;
67132;SDS011;54052;53.542;49.408;2023-04-01T03:04:40;3.15;;;1.20;;
67132;SDS011;54052;53.542;49.408;2023-04-01T03:07:06;3.85;;;1.30;;
67132;SDS011;54052;53.542;49.408;2023-04-01T03:09:35;3.78;;;1.35;;
67132;SDS011;54052;53.542;49.408;2023-04-01T03:12:02;7.00;;;1.50;;
67132;SDS011;54052;53.542;49.408;2023-04-01T03:14:28;10.93;;;1.25;;
67132;SDS011;54052;53.542;49.408;2023-04-01T03:16:54;5.78;;;1.27;;
67132;SDS011;54052;53.542;49.408;2023-04-01T03:19:20;6.97;;;1.40;;
67132;SDS011;54052;53.542;49.408;2023-04-01T03:21:46;8.45;;;1.20;;
67132;SDS011;54052;53.542;49.408;2023-04-01T03:24:12;4.65;;;1.17;;
67132;SDS011;54052;53.542;49.408;2023-04-01T03:26:39;4.20;;;2.63;;
67132;SDS011;54052;53.542;49.408;2023-04-01T03:29:05;6.22;;;1.17;;
67132;SDS011;54052;53.542;49.408;2023-04-01T03:31:31;13.48;;;1.58;;
67132;SDS011;54052;53.542;49.408;2023-04-01T03:33:57;3.95;;;1.60;;
67132;SDS011;54052;53.542;49.408;2023-04-01T03:36:23;4.20;;;1.08;;
67132;SDS011;54052;53.542;49.408;2023-04-01T03:38:49;9.95;;;1.38;;
67132;SDS011;54052;53.542;49.408;2023-04-01T03:41:16;5.78;;;1.45;;
67132;SDS011;54052;53.542;49.408;2023-04-01T03:43:43;3.60;;;1.20;;
67132;SDS011;54052;53.542;49.408;2023-04-01T03:46:16;12.32;;;1.20;;
67132;SDS011;54052;53.542;49.408;2023-04-01T03:48:43;3.08;;;1.10;;
67132;SDS011;54052;53.542;49.408;2023-04-01T03:51:10;9.45;;;1.38;;
67132;SDS011;54052;53.542;49.408;2023-04-01T03:53:36;3.15;;;1.30;;
67132;SDS011;54052;53.542;49.408;2023-04-01T03:56:03;3.83;;;1.20;;
67132;SDS011;54052;53.542;49.408;2023-04-01T03:58:34;3.88;;;1.20;;
67132;SDS011;54052;53.542;49.408;2023-04-01T04:01:00;4.18;;;1.10;;
67132;SDS011;54052;53.542;49.408;2023-04-01T04:03:27;3.03;;;1.05;;
67132;SDS011;54052;53.542;49.408;2023-04-01T04:05:53;4.00;;;1.40;;
67132;SDS011;54052;53.542;49.408;2023-04-01T04:08:21;2.90;;;1.23;;
67132;SDS011;54052;53.542;49.408;2023-04-01T04:10:47;4.10;;;1.15;;
67132;SDS011;54052;53.542;49.408;2023-04-01T04:13:19;2.30;;;1.00;;
67132;SDS011;54052;53.542;49.408;2023-04-01T04:15:46;10.85;;;1.38;;
67132;SDS011;54052;53.542;49.408;2023-04-01T04:18:12;4.47;;;1.40;;
67132;SDS011;54052;53.542;49.408;2023-04-01T04:20:43;3.03;;;1.48;;
67132;SDS011;54052;53.542;49.408;2023-04-01T04:23:11;2.08;;;1.20;;
67132;SDS011;54052;53.542;49.408;2023-04-01T04:25:37;5.35;;;1.02;;
67132;SDS011;54052;53.542;49.408;2023-04-01T04:28:03;4.45;;;1.17;;
67132;SDS011;54052;53.542;49.408;2023-04-01T04:30:30;6.57;;;1.42;;
67132;SDS011;54052;53.542;49.408;2023-04-01T04:32:56;2.28;;;1.20;;
67132;SDS011;54052;53.542;49.408;2023-04-01T04:35:22;1.73;;;0.60;;
67132;SDS011;54052;53.542;49.408;2023-04-01T04:37:49;2.20;;;1.00;;
67132;SDS011;54052;53.542;49.408;2023-04-01T04:40:15;4.35;;;0.80;;
67132;SDS011;54052;53.542;49.408;2023-04-01T04:42:41;6.43;;;0.93;;
67132;SDS011;54052;53.542;49.408;2023-04-01T04:45:08;3.72;;;0.77;;
67132;SDS011;54052;53.542;49.408;2023-04-01T04:47:34;3.65;;;1.00;;
67132;SDS011;54052;53.542;49.408;2023-04-01T04:50:01;23.20;;;8.10;;
67132;SDS011;54052;53.542;49.408;2023-04-01T04:52:28;34.55;;;16.13;;
67132;SDS011;54052;53.542;49.408;2023-04-01T04:54:54;23.63;;;11.73;;
67132;SDS011;54052;53.542;49.408;2023-04-01T04:57:20;29.67;;;11.50;;
67132;SDS011;54052;53.542;49.408;2023-04-01T04:59:47;44.92;;;14.13;;
67132;SDS011;54052;53.542;49.408;2023-04-01T05:02:14;22.40;;;8.07;;
67132;SDS011;54052;53.542;49.408;2023-04-01T05:04:40;32.00;;;10.98;;
67132;SDS011;54052;53.542;49.408;2023-04-01T05:07:06;54.03;;;16.73;;
67132;SDS011;54052;53.542;49.408;2023-04-01T05:09:32;28.67;;;11.32;;
67132;SDS011;54052;53.542;49.408;2023-04-01T05:11:59;32.55;;;12.15;;
67132;SDS011;54052;53.542;49.408;2023-04-01T05:14:25;21.95;;;5.47;;
67132;SDS011;54052;53.542;49.408;2023-04-01T05:16:52;6.75;;;1.10;;
67132;SDS011;54052;53.542;49.408;2023-04-01T05:19:19;15.95;;;5.75;;
67132;SDS011;54052;53.542;49.408;2023-04-01T05:21:46;22.83;;;5.35;;
67132;SDS011;54052;53.542;49.408;2023-04-01T05:24:12;55.90;;;8.43;;
67132;SDS011;54052;53.542;49.408;2023-04-01T05:26:38;14.18;;;5.35;;
67132;SDS011;54052;53.542;49.408;2023-04-01T05:29:05;16.98;;;4.13;;
67132;SDS011;54052;53.542;49.408;2023-04-01T05:31:31;13.27;;;5.15;;
67132;SDS011;54052;53.542;49.408;2023-04-01T05:33:57;16.85;;;3.75;;
67132;SDS011;54052;53.542;49.408;2023-04-01T05:36:24;13.68;;;2.47;;
67132;SDS011;54052;53.542;49.408;2023-04-01T05:38:50;9.23;;;2.67;;
67132;SDS011;54052;53.542;49.408;2023-04-01T05:41:16;6.05;;;2.33;;
67132;SDS011;54052;53.542;49.408;2023-04-01T05:43:43;9.82;;;1.98;;
67132;SDS011;54052;53.542;49.408;2023-04-01T05:46:09;10.48;;;2.38;;
67132;SDS011;54052;53.542;49.408;2023-04-01T05:48:36;5.43;;;1.98;;
67132;SDS011;54052;53.542;49.408;2023-04-01T05:51:02;7.20;;;1.48;;
67132;SDS011;54052;53.542;49.408;2023-04-01T05:53:29;60.92;;;4.68;;
67132;SDS011;54052;53.542;49.408;2023-04-01T05:55:55;7.30;;;2.05;;
67132;SDS011;54052;53.542;49.408;2023-04-01T05:58:21;27.42;;;3.28;;
67132;SDS011;54052;53.542;49.408;2023-04-01T06:00:47;10.10;;;1.52;;
67132;SDS011;54052;53.542;49.408;2023-04-01T06:03:13;8.43;;;1.90;;
67132;SDS011;54052;53.542;49.408;2023-04-01T06:05:40;17.55;;;1.65;;
67132;SDS011;54052;53.542;49.408;2023-04-01T06:08:12;3.28;;;1.52;;
67132;SDS011;54052;53.542;49.408;2023-04-01T06:11:01;5.75;;;1.65;;
67132;SDS011;54052;53.542;49.408;2023-04-01T06:22:51;4.55;;;1.27;;
67132;SDS011;54052;53.542;49.408;2023-04-01T06:28:38;3.72;;;0.80;;
67132;SDS011;54052;53.542;49.408;2023-04-01T06:31:20;16.25;;;1.45;;
67132;SDS011;54052;53.542;49.408;2023-04-01T06:39:52;2.75;;;0.90;;
67132;SDS011;54052;53.542;49.408;2023-04-01T06:48:30;1.65;;;0.82;;
67132;SDS011;54052;53.542;49.408;2023-04-01T06:51:39;5.25;;;0.77;;
67132;SDS011;54052;53.542;49.408;2023-04-01T06:54:48;3.55;;;0.70;;
67132;SDS011;54052;53.542;49.408;2023-04-01T06:57:39;7.13;;;1.00;;
67132;SDS011;54052;53.542;49.408;2023-04-01T07:00:19;9.10;;;1.00;;
67132;SDS011;54052;53.542;49.408;2023-04-01T07:03:17;4.22;;;1.65;;
67132;SDS011;54052;53.542;49.408;2023-04-01T07:05:48;10.30;;;1.02;;
67132;SDS011;54052;53.542;49.408;2023-04-01T07:08:18;3.70;;;1.13;;
67132;SDS011;54052;53.542;49.408;2023-04-01T07:13:25;22.63;;;1.25;;
67132;SDS011;54052;53.542;49.408;2023-04-01T07:16:03;19.10;;;1.00;;
67132;SDS011;54052;53.542;49.408;2023-04-01T07:18:36;1.33;;;0.88;;
67132;SDS011;54052;53.542;49.408;2023-04-01T07:21:10;1.80;;;0.75;;
67132;SDS011;54052;53.542;49.408;2023-04-01T07:24:04;1.60;;;0.90;;
67132;SDS011;54052;53.542;49.408;2023-04-01T07:26:34;14.15;;;0.90;;
67132;SDS011;54052;53.542;49.408;2023-04-01T07:29:01;1.27;;;0.80;;
67132;SDS011;54052;53.542;49.408;2023-04-01T07:34:38;37.10;;;2.40;;
67132;SDS011;54052;53.542;49.408;2023-04-01T07:37:28;13.25;;;0.93;;
67132;SDS011;54052;53.542;49.408;2023-04-01T07:48:35;3.75;;;1.17;;
67132;SDS011;54052;53.542;49.408;2023-04-01T07:51:23;7.65;;;1.10;;
67132;SDS011;54052;53.542;49.408;2023-04-01T07:59:18;8.38;;;1.27;;
67132;SDS011;54052;53.542;49.408;2023-04-01T08:07:45;6.53;;;2.58;;
67132;SDS011;54052;53.542;49.408;2023-04-01T08:10:32;3.55;;;1.50;;
67132;SDS011;54052;53.542;49.408;2023-04-01T08:19:01;18.67;;;1.23;;
67132;SDS011;54052;53.542;49.408;2023-04-01T08:21:43;4.15;;;0.90;;
67132;SDS011;54052;53.542;49.408;2023-04-01T08:27:24;6.60;;;0.90;;
67132;SDS011;54052;53.542;49.408;2023-04-01T08:29:58;19.65;;;1.90;;
67132;SDS011;54052;53.542;49.408;2023-04-01T08:32:34;5.18;;;1.33;;
67132;SDS011;54052;53.542;49.408;2023-04-01T08:35:13;3.03;;;1.10;;
67132;SDS011;54052;53.542;49.408;2023-04-01T08:37:43;19.35;;;2.75;;
67132;SDS011;54052;53.542;49.408;2023-04-01T08:48:22;8.32;;;0.90;;
67132;SDS011;54052;53.542;49.408;2023-04-01T08:56:50;10.70;;;2.10;;
67132;SDS011;54052;53.542;49.408;2023-04-01T09:02:32;17.63;;;1.40;;
67132;SDS011;54052;53.542;49.408;2023-04-01T09:08:14;5.50;;;0.95;;
67132;SDS011;54052;53.542;49.408;2023-04-01T09:27:54;4.72;;;1.00;;
67132;SDS011;54052;53.542;49.408;2023-04-01T09:45:27;5.72;;;1.52;;
67132;SDS011;54052;53.542;49.408;2023-04-01T09:51:05;7.50;;;1.92;;
67132;SDS011;54052;53.542;49.408;2023-04-01T10:07:46;18.45;;;2.22;;
67132;SDS011;54052;53.542;49.408;2023-04-01T10:50:07;3.88;;;1.52;;
67132;SDS011;54052;53.542;49.408;2023-04-01T10:52:54;11.15;;;3.13;;
67132;SDS011;54052;53.542;49.408;2023-04-01T10:55:47;2.80;;;1.45;;
67132;SDS011;54052;53.542;49.408;2023-04-01T11:10:01;14.45;;;2.05;;
67132;SDS011;54052;53.542;49.408;2023-04-01T11:29:15;6.13;;;1.92;;
67132;SDS011;54052;53.542;49.408;2023-04-01T11:32:11;33.38;;;2.83;;
67132;SDS011;54052;53.542;49.408;2023-04-01T11:42:56;4.45;;;1.42;;
67132;SDS011;54052;53.542;49.408;2023-04-01T12:02:34;9.20;;;2.33;;
67132;SDS011;54052;53.542;49.408;2023-04-01T12:17:31;4.75;;;2.33;;
67132;SDS011;54052;53.542;49.408;2023-04-01T12:22:49;5.80;;;2.03;;
67132;SDS011;54052;53.542;49.408;2023-04-01T12:36:49;8.20;;;1.33;;
67132;SDS011;54052;53.542;49.408;2023-04-01T12:42:33;3.25;;;1.55;;
67132;SDS011;54052;53.542;49.408;2023-04-01T12:47:49;4.90;;;1.10;;
67132;SDS011;54052;53.542;49.408;2023-04-01T12:56:39;13.02;;;2.45;;
67132;SDS011;54052;53.542;49.408;2023-04-01T13:01:40;4.85;;;1.70;;
67132;SDS011;54052;53.542;49.408;2023-04-01T13:06:59;11.60;;;2.20;;
67132;SDS011;54052;53.542;49.408;2023-04-01T13:09:59;13.68;;;1.80;;
67132;SDS011;54052;53.542;49.408;2023-04-01T13:21:43;8.60;;;1.85;;
67132;SDS011;54052;53.542;49.408;2023-04-01T13:24:27;9.45;;;1.67;;
67132;SDS011;54052;53.542;49.408;2023-04-01T13:29:57;16.40;;;5.80;;
67132;SDS011;54052;53.542;49.408;2023-04-01T13:35:43;7.50;;;2.80;;
67132;SDS011;54052;53.542;49.408;2023-04-01T13:40:49;9.27;;;1.98;;
67132;SDS011;54052;53.542;49.408;2023-04-01T13:43:49;14.05;;;2.00;;
67132;SDS011;54052;53.542;49.408;2023-04-01T13:55:18;21.65;;;2.85;;
67132;SDS011;54052;53.542;49.408;2023-04-01T14:00:35;9.38;;;3.35;;
67132;SDS011;54052;53.542;49.408;2023-04-01T14:03:12;9.18;;;3.60;;
67132;SDS011;54052;53.542;49.408;2023-04-01T14:06:09;10.98;;;4.38;;
67132;SDS011;54052;53.542;49.408;2023-04-01T14:35:50;23.05;;;8.93;;
67132;SDS011;54052;53.542;49.408;2023-04-01T14:47:04;33.95;;;6.53;;
67132;SDS011;54052;53.542;49.408;2023-04-01T14:49:53;14.82;;;7.03;;
67132;SDS011;54052;53.542;49.408;2023-04-01T14:52:45;16.40;;;5.43;;
67132;SDS011;54052;53.542;49.408;2023-04-01T14:58:00;13.07;;;4.80;;
67132;SDS011;54052;53.542;49.408;2023-04-01T15:08:32;14.25;;;4.65;;
67132;SDS011;54052;53.542;49.408;2023-04-01T15:14:06;21.00;;;6.78;;
67132;SDS011;54052;53.542;49.408;2023-04-01T15:17:01;22.33;;;5.13;;
67132;SDS011;54052;53.542;49.408;2023-04-01T15:30:49;16.90;;;6.32;;
67132;SDS011;54052;53.542;49.408;2023-04-01T15:44:33;10.48;;;4.35;;
67132;SDS011;54052;53.542;49.408;2023-04-01T15:49:57;33.53;;;4.70;;
67132;SDS011;54052;53.542;49.408;2023-04-01T15:55:39;22.58;;;4.70;;
67132;SDS011;54052;53.542;49.408;2023-04-01T16:01:14;13.23;;;4.53;;
67132;SDS011;54052;53.542;49.408;2023-04-01T16:29:53;35.88;;;8.15;;
67132;SDS011;54052;53.542;49.408;2023-04-01T16:32:37;37.65;;;7.55;;
67132;SDS011;54052;53.542;49.408;2023-04-01T16:37:45;28.02;;;6.28;;
67132;SDS011;54052;53.542;49.408;2023-04-01T16:45:53;10.45;;;4.65;;
67132;SDS011;54052;53.542;49.408;2023-04-01T16:48:43;49.90;;;6.78;;
67132;SDS011;54052;53.542;49.408;2023-04-01T16:51:30;27.65;;;5.70;;
67132;SDS011;54052;53.542;49.408;2023-04-01T16:54:18;18.40;;;4.18;;
67132;SDS011;54052;53.542;49.408;2023-04-01T16:57:02;32.05;;;5.10;;
67132;SDS011;54052;53.542;49.408;2023-04-01T17:02:23;29.95;;;5.18;;
67132;SDS011;54052;53.542;49.408;2023-04-01T17:20:43;9.40;;;3.38;;
67132;SDS011;54052;53.542;49.408;2023-04-01T17:42:30;7.95;;;1.85;;
67132;SDS011;54052;53.542;49.408;2023-04-01T17:50:49;48.05;;;12.82;;
67132;SDS011;54052;53.542;49.408;2023-04-01T17:56:38;31.38;;;13.73;;
67132;SDS011;54052;53.542;49.408;2023-04-01T18:04:55;32.05;;;13.65;;
67132;SDS011;54052;53.542;49.408;2023-04-01T18:18:58;27.80;;;7.97;;
67132;SDS011;54052;53.542;49.408;2023-04-01T18:26:39;27.02;;;8.88;;
67132;SDS011;54052;53.542;49.408;2023-04-01T18:35:16;15.82;;;6.75;;
67132;SDS011;54052;53.542;49.408;2023-04-01T18:47:23;30.42;;;4.00;;
67132;SDS011;54052;53.542;49.408;2023-04-01T18:49:55;11.07;;;3.78;;
67132;SDS011;54052;53.542;49.408;2023-04-01T18:52:46;29.88;;;3.70;;
67132;SDS011;54052;53.542;49.408;2023-04-01T19:03:32;17.50;;;2.85;;
67132;SDS011;54052;53.542;49.408;2023-04-01T19:06:17;15.50;;;2.90;;
67132;SDS011;54052;53.542;49.408;2023-04-01T19:09:10;13.30;;;3.88;;
67132;SDS011;54052;53.542;49.408;2023-04-01T19:11:46;10.38;;;2.40;;
67132;SDS011;54052;53.542;49.408;2023-04-01T19:17:36;9.82;;;3.08;;
67132;SDS011;54052;53.542;49.408;2023-04-01T19:20:50;9.23;;;3.25;;
67132;SDS011;54052;53.542;49.408;2023-04-01T19:26:23;6.10;;;1.90;;
67132;SDS011;54052;53.542;49.408;2023-04-01T19:28:56;5.57;;;2.15;;
67132;SDS011;54052;53.542;49.408;2023-04-01T19:37:05;22.20;;;3.13;;
67132;SDS011;54052;53.542;49.408;2023-04-01T19:50:59;12.98;;;2.95;;
67132;SDS011;54052;53.542;49.408;2023-04-01T19:53:14;3.00;;;1.42;;
67132;SDS011;54052;53.542;49.408;2023-04-01T20:01:21;2.50;;;0.95;;
67132;SDS011;54052;53.542;49.408;2023-04-01T20:04:04;9.05;;;1.58;;
67132;SDS011;54052;53.542;49.408;2023-04-01T20:06:53;5.90;;;1.73;;
67132;SDS011;54052;53.542;49.408;2023-04-01T20:09:38;8.57;;;1.30;;
67132;SDS011;54052;53.542;49.408;2023-04-01T20:12:29;7.93;;;1.50;;
67132;SDS011;54052;53.542;49.408;2023-04-01T20:17:53;3.50;;;1.17;;
67132;SDS011;54052;53.542;49.408;2023-04-01T20:20:26;20.90;;;1.30;;
67132;SDS011;54052;53.542;49.408;2023-04-01T20:25:37;13.00;;;1.00;;
67132;SDS011;54052;53.542;49.408;2023-04-01T20:28:09;13.80;;;3.30;;
67132;SDS011;54052;53.542;49.408;2023-04-01T21:03:31;21.20;;;1.27;;
67132;SDS011;54052;53.542;49.408;2023-04-01T21:19:59;7.25;;;0.90;;
67132;SDS011;54052;53.542;49.408;2023-04-01T21:36:20;1.92;;;0.80;;
67132;SDS011;54052;53.542;49.408;2023-04-01T21:44:57;14.23;;;1.10;;
67132;SDS011;54052;53.542;49.408;2023-04-01T21:47:53;3.13;;;0.75;;
67132;SDS011;54052;53.542;49.408;2023-04-01T22:05:11;4.20;;;1.17;;
67132;SDS011;54052;53.542;49.408;2023-04-01T22:13:38;7.72;;;1.00;;
67132;SDS011;54052;53.542;49.408;2023-04-01T22:16:27;3.85;;;1.20;;
67132;SDS011;54052;53.542;49.408;2023-04-01T22:19:34;5.15;;;0.98;;
67132;SDS011;54052;53.542;49.408;2023-04-01T22:25:04;11.00;;;1.25;;
67132;SDS011;54052;53.542;49.408;2023-04-01T22:27:40;12.80;;;1.23;;
67132;SDS011;54052;53.542;49.408;2023-04-01T22:30:27;10.85;;;1.38;;
67132;SDS011;54052;53.542;49.408;2023-04-01T22:42:00;5.53;;;1.05;;
67132;SDS011;54052;53.542;49.408;2023-04-01T22:49:54;7.03;;;1.00;;
67132;SDS011;54052;53.542;49.408;2023-04-01T22:52:38;4.15;;;1.13;;
67132;SDS011;54052;53.542;49.408;2023-04-01T22:55:15;3.00;;;1.48;;
67132;SDS011;54052;53.542;49.408;2023-04-01T22:58:06;12.38;;;1.70;;
67132;SDS011;54052;53.542;49.408;2023-04-01T23:00:43;3.88;;;1.60;;
67132;SDS011;54052;53.542;49.408;2023-04-01T23:05:51;6.78;;;1.67;;
67132;SDS011;54052;53.542;49.408;2023-04-01T23:14:42;10.27;;;1.37;;
67132;SDS011;54052;53.542;49.408;2023-04-01T23:16:54;8.70;;;1.65;;
67132;SDS011;54052;53.542;49.408;2023-04-01T23:20:10;7.55;;;1.77;;
67132;SDS011;54052;53.542;49.408;2023-04-01T23:25:27;4.30;;;1.65;;
67132;SDS011;54052;53.542;49.408;2023-04-01T23:28:23;5.25;;;1.67;;
67132;SDS011;54052;53.542;49.408;2023-04-01T23:31:01;4.47;;;2.08;;
67132;SDS011;54052;53.542;49.408;2023-04-01T23:33:28;4.97;;;1.58;;
67132;SDS011;54052;53.542;49.408;2023-04-01T23:36:11;5.38;;;1.75;;
67132;SDS011;54052;53.542;49.408;2023-04-01T23:38:40;8.52;;;1.75;;
67132;SDS011;54052;53.542;49.408;2023-04-01T23:41:18;4.07;;;1.50;;
67132;SDS011;54052;53.542;49.408;2023-04-01T23:43:59;7.82;;;1.85;;
67132;SDS011;54052;53.542;49.408;2023-04-01T23:46:26;8.23;;;1.55;;
67132;SDS011;54052;53.542;49.408;2023-04-01T23:48:54;4.45;;;1.60;;
67132;SDS011;54052;53.542;49.408;2023-04-01T23:52:09;6.93;;;2.67;;
67132;SDS011;54052;53.542;49.408;2023-04-01T23:54:32;8.20;;;1.80;;
67132;SDS011;54052;53.542;49.408;2023-04-01T23:57:04;10.25;;;2.42;;
67132;SDS011;54052;53.542;49.408;2023-04-01T23:59:36;22.52;;;14.15;;
